Time;durP1;ratioP1;P1;durP2;ratioP2;P2;SDS_P1;SDS_P2;PMS_P1;PMS_P2;Temp;Humidity;BMP_temperature;BMP_pressure;BME280_temperature;BME280_humidity;BME280_pressure;Samples;Min_cycle;Max_cycle;Signal;HPM_P1;HPM_P2
2021/12/01 00:01:49;;;;;;;3.13;1.90;;;;;;;1.63;100.00;96228.91;5064260;28;20484;-86
2021/12/01 00:04:16;;;;;;;1.63;1.40;;;;;;;1.71;100.00;96235.00;5065766;28;20230;-86
2021/12/01 00:06:43;;;;;;;1.10;1.00;;;;;;;1.65;100.00;96232.25;5068060;28;20201;-86
2021/12/01 00:09:10;;;;;;;1.17;1.07;;;;;;;1.66;100.00;96237.38;5057632;28;20221;-86
2021/12/01 00:11:39;;;;;;;2.30;1.37;;;;;;;1.69;100.00;96230.88;5051546;28;20237;-85
2021/12/01 00:14:07;;;;;;;1.33;1.07;;;;;;;1.68;100.00;96230.06;5060799;28;20220;-86
2021/12/01 00:16:34;;;;;;;1.60;1.20;;;;;;;1.66;100.00;96233.91;5079309;28;20213;-86
2021/12/01 00:19:02;;;;;;;1.80;1.10;;;;;;;1.67;100.00;96238.22;5056717;28;20229;-86
2021/12/01 00:21:29;;;;;;;1.10;1.00;;;;;;;1.69;100.00;96229.06;5078072;28;20518;-86
2021/12/01 00:23:57;;;;;;;1.57;1.10;;;;;;;1.66;100.00;96225.91;5059087;28;20216;-86
2021/12/01 00:26:24;;;;;;;1.40;1.20;;;;;;;1.60;100.00;96218.66;5070986;28;20296;-86
2021/12/01 00:28:51;;;;;;;1.00;0.90;;;;;;;1.57;100.00;96211.00;5059320;28;20269;-86
2021/12/01 00:31:18;;;;;;;1.10;1.00;;;;;;;1.57;100.00;96219.00;5059035;28;20240;-86
2021/12/01 00:33:45;;;;;;;1.20;1.10;;;;;;;1.55;100.00;96221.00;5057691;28;20202;-85
2021/12/01 00:36:15;;;;;;;1.00;0.90;;;;;;;1.53;100.00;96208.69;5076839;28;20292;-86
2021/12/01 00:38:43;;;;;;;0.90;0.90;;;;;;;1.53;100.00;96205.22;5073429;28;20208;-86
2021/12/01 00:41:11;;;;;;;1.20;1.10;;;;;;;1.52;100.00;96196.41;5056926;28;20205;-86
2021/12/01 00:43:40;;;;;;;1.67;1.00;;;;;;;1.50;100.00;96189.63;5068661;28;20300;-86
2021/12/01 00:46:13;;;;;;;1.10;0.90;;;;;;;1.53;100.00;96182.09;5064038;28;20233;-86
2021/12/01 00:48:41;;;;;;;1.50;0.90;;;;;;;1.51;100.00;96173.47;5065222;28;20253;-85
2021/12/01 00:51:09;;;;;;;1.03;0.97;;;;;;;1.58;100.00;96172.75;5060697;28;20198;-85
2021/12/01 00:53:37;;;;;;;1.10;1.00;;;;;;;1.55;100.00;96154.47;5061873;28;20197;-86
2021/12/01 00:56:05;;;;;;;1.00;0.90;;;;;;;1.65;100.00;96147.91;5057202;28;20190;-86
2021/12/01 00:58:33;;;;;;;1.13;1.03;;;;;;;1.80;100.00;96150.59;5067094;28;20203;-86
2021/12/01 01:01:01;;;;;;;2.17;1.17;;;;;;;1.83;100.00;96135.09;5072177;28;20208;-86
2021/12/01 01:03:31;;;;;;;1.67;1.17;;;;;;;1.97;100.00;96135.28;5059290;28;20255;-86
2021/12/01 01:05:58;;;;;;;2.20;1.10;;;;;;;1.88;100.00;96124.72;5059201;28;20303;-86
2021/12/01 01:08:25;;;;;;;1.47;1.30;;;;;;;1.81;100.00;96115.81;5063619;28;20209;-86
2021/12/01 01:16:29;;;;;;;1.10;1.00;;;;;;;1.86;100.00;96128.59;4990385;28;20338;-85
2021/12/01 01:19:01;;;;;;;1.10;1.00;;;;;;;1.84;100.00;96130.59;5056868;28;20219;-85
2021/12/01 01:21:31;;;;;;;1.10;1.00;;;;;;;1.81;100.00;96125.63;5061020;28;20279;-85
2021/12/01 01:23:59;;;;;;;1.43;1.00;;;;;;;1.76;100.00;96120.03;5060797;28;20320;-85
2021/12/01 01:26:28;;;;;;;1.30;1.20;;;;;;;1.76;100.00;96120.03;5054533;28;20255;-85
2021/12/01 01:28:55;;;;;;;1.63;1.20;;;;;;;1.84;100.00;96114.63;5060056;28;20305;-85
2021/12/01 01:31:23;;;;;;;2.50;1.03;;;;;;;1.83;100.00;96099.66;5051955;28;20196;-85
2021/12/01 01:33:50;;;;;;;1.73;1.00;;;;;;;1.76;100.00;96096.06;5066872;28;20198;-85
2021/12/01 01:36:18;;;;;;;1.27;1.00;;;;;;;1.76;100.00;96096.06;5055563;28;20227;-85
2021/12/01 01:38:45;;;;;;;1.10;1.00;;;;;;;1.75;100.00;96105.06;5064679;28;20262;-86
2021/12/01 01:41:14;;;;;;;0.93;0.73;;;;;;;1.78;100.00;96091.41;5060216;28;20201;-86
2021/12/01 01:43:45;;;;;;;0.97;0.70;;;;;;;1.74;100.00;96076.78;5061173;28;20291;-86
2021/12/01 01:46:13;;;;;;;0.80;0.80;;;;;;;1.75;100.00;96078.44;5054986;28;20218;-85
2021/12/01 01:48:48;;;;;;;0.87;0.87;;;;;;;1.80;100.00;96081.38;5064660;28;20203;-86
2021/12/01 01:51:17;;;;;;;2.30;1.00;;;;;;;1.84;100.00;96080.00;5065427;28;20279;-86
2021/12/01 01:53:44;;;;;;;2.63;1.00;;;;;;;1.79;100.00;96074.41;5066107;28;20316;-85
2021/12/01 01:56:11;;;;;;;1.40;1.10;;;;;;;1.77;100.00;96071.09;5065757;28;20212;-86
2021/12/01 01:58:38;;;;;;;1.47;1.20;;;;;;;1.72;100.00;96062.81;5063208;28;20197;-86
2021/12/01 02:01:11;;;;;;;2.13;1.40;;;;;;;1.73;100.00;96067.16;5074060;28;20212;-86
2021/12/01 02:03:41;;;;;;;1.87;1.40;;;;;;;1.76;100.00;96058.81;5065067;28;20323;-86
2021/12/01 02:06:10;;;;;;;3.00;1.90;;;;;;;1.79;100.00;96055.75;5063616;28;20299;-86
2021/12/01 02:08:40;;;;;;;3.30;1.77;;;;;;;1.76;100.00;96032.19;5060872;28;20204;-86
2021/12/01 02:11:10;;;;;;;3.10;2.07;;;;;;;1.73;100.00;96032.53;5053538;28;20219;-85
2021/12/01 02:13:38;;;;;;;3.33;1.80;;;;;;;1.72;100.00;96025.56;5051191;28;20297;-86
2021/12/01 02:16:07;;;;;;;4.17;1.70;;;;;;;1.68;100.00;96013.66;5063534;28;20243;-85
2021/12/01 02:18:34;;;;;;;2.83;2.27;;;;;;;1.63;100.00;96002.72;5059076;28;20291;-85
2021/12/01 02:21:07;;;;;;;3.20;2.37;;;;;;;1.59;100.00;95999.59;5063969;28;20312;-86
2021/12/01 02:23:36;;;;;;;3.90;2.33;;;;;;;1.51;100.00;95989.88;5066151;28;20236;-85
2021/12/01 02:26:04;;;;;;;2.10;1.87;;;;;;;1.53;100.00;95990.50;5052356;28;20211;-86
2021/12/01 02:28:32;;;;;;;2.63;2.00;;;;;;;1.44;100.00;95985.47;5072239;28;20209;-85
2021/12/01 02:30:59;;;;;;;3.10;1.93;;;;;;;1.44;100.00;95991.63;5057243;28;20263;-85
2021/12/01 02:33:27;;;;;;;2.13;1.93;;;;;;;1.41;100.00;95997.31;5063318;28;20225;-86
2021/12/01 02:35:54;;;;;;;2.43;2.03;;;;;;;1.38;100.00;95987.00;5064854;28;20202;-86
2021/12/01 02:38:24;;;;;;;3.30;2.33;;;;;;;1.39;100.00;95971.88;5070192;28;20198;-86
2021/12/01 02:40:52;;;;;;;2.30;2.00;;;;;;;1.36;100.00;95975.72;5060914;28;20203;-86
2021/12/01 02:43:23;;;;;;;2.97;2.33;;;;;;;1.34;100.00;95969.78;5068303;28;20206;-86
2021/12/01 02:45:53;;;;;;;3.17;2.63;;;;;;;1.34;100.00;95969.78;5061902;28;20226;-85
2021/12/01 02:48:20;;;;;;;3.23;2.30;;;;;;;1.31;100.00;95964.81;5056617;28;20219;-85
2021/12/01 02:50:47;;;;;;;2.70;2.33;;;;;;;1.37;100.00;95956.09;5073006;28;20282;-85
2021/12/01 02:53:15;;;;;;;2.97;2.60;;;;;;;1.29;100.00;95950.88;5065636;28;20231;-86
2021/12/01 02:55:51;;;;;;;3.30;2.60;;;;;;;1.26;100.00;95951.25;5067676;28;20200;-85
2021/12/01 02:58:20;;;;;;;3.27;2.83;;;;;;;1.30;100.00;95957.84;5067762;28;20201;-86
2021/12/01 03:00:47;;;;;;;4.20;2.57;;;;;;;1.19;100.00;95939.69;5069914;28;20202;-85
2021/12/01 03:03:15;;;;;;;3.33;3.03;;;;;;;1.20;100.00;95933.34;5068718;28;20240;-85
2021/12/01 03:05:46;;;;;;;3.30;3.00;;;;;;;1.20;100.00;95935.16;5076052;28;20228;-85
2021/12/01 03:08:14;;;;;;;3.10;2.80;;;;;;;1.22;100.00;95925.19;5069941;28;20238;-85
2021/12/01 03:10:44;;;;;;;3.67;2.83;;;;;;;1.17;100.00;95920.44;5067467;28;20207;-85
2021/12/01 03:13:11;;;;;;;3.77;2.97;;;;;;;1.14;100.00;95916.28;5058131;28;20228;-85
2021/12/01 03:15:38;;;;;;;4.20;2.90;;;;;;;1.18;100.00;95916.75;5079041;28;20208;-85
2021/12/01 03:18:06;;;;;;;3.70;3.00;;;;;;;1.17;100.00;95912.44;5062671;28;20192;-85
2021/12/01 03:20:33;;;;;;;3.33;3.00;;;;;;;1.17;100.00;95919.59;5068273;28;20289;-85
2021/12/01 03:23:00;;;;;;;4.10;3.17;;;;;;;1.14;100.00;95905.66;5057503;28;20213;-85
2021/12/01 03:25:28;;;;;;;5.57;3.97;;;;;;;1.23;100.00;95909.06;5059684;28;20202;-85
2021/12/01 03:27:59;;;;;;;4.50;3.50;;;;;;;1.14;100.00;95878.25;5056716;28;20212;-85
2021/12/01 03:30:26;;;;;;;8.23;3.50;;;;;;;1.17;100.00;95871.75;5054777;28;20239;-85
2021/12/01 03:32:54;;;;;;;4.47;3.30;;;;;;;1.14;100.00;95871.09;5063969;28;20323;-85
2021/12/01 03:35:21;;;;;;;3.57;2.80;;;;;;;1.14;100.00;95862.28;5059300;28;20196;-85
2021/12/01 03:37:49;;;;;;;3.43;2.60;;;;;;;1.16;100.00;95860.28;5055761;28;20235;-85
2021/12/01 03:40:16;;;;;;;2.80;2.30;;;;;;;1.32;100.00;95853.94;5067104;28;20208;-85
2021/12/01 03:42:44;;;;;;;3.00;2.50;;;;;;;1.32;100.00;95844.13;5067567;28;20204;-85
2021/12/01 03:45:15;;;;;;;3.93;2.83;;;;;;;1.26;100.00;95838.72;5062072;28;20226;-85
2021/12/01 03:47:43;;;;;;;4.20;3.10;;;;;;;1.25;100.00;95835.25;5065845;28;20298;-85
2021/12/01 03:50:11;;;;;;;3.37;2.73;;;;;;;1.21;100.00;95839.25;5052907;28;20212;-85
2021/12/01 03:52:39;;;;;;;2.63;2.37;;;;;;;1.21;100.00;95839.25;5070488;28;20217;-85
2021/12/01 03:55:08;;;;;;;2.20;2.00;;;;;;;1.21;100.00;95830.47;5059422;28;20201;-85
2021/12/01 03:57:36;;;;;;;3.70;2.83;;;;;;;1.20;100.00;95818.16;5060687;28;20206;-85
2021/12/01 04:00:06;;;;;;;3.53;2.63;;;;;;;1.19;100.00;95816.53;5062249;28;20217;-84
2021/12/01 04:02:41;;;;;;;4.23;2.90;;;;;;;1.19;100.00;95809.41;5069834;28;20231;-85
2021/12/01 04:05:09;;;;;;;4.87;3.13;;;;;;;1.20;100.00;95805.69;5055310;28;20215;-85
2021/12/01 04:07:36;;;;;;;2.60;2.03;;;;;;;1.11;100.00;95799.66;5050639;28;20201;-85
2021/12/01 04:10:05;;;;;;;3.83;2.40;;;;;;;1.12;100.00;95790.66;5066382;28;20297;-85
2021/12/01 04:12:33;;;;;;;3.40;2.30;;;;;;;1.23;100.00;95789.38;5065296;28;20289;-85
2021/12/01 04:15:00;;;;;;;3.13;2.83;;;;;;;1.19;100.00;95790.78;5065103;28;20284;-85
2021/12/01 04:17:28;;;;;;;2.60;1.97;;;;;;;1.11;100.00;95782.88;5061696;28;20193;-85
2021/12/01 04:19:56;;;;;;;2.73;2.43;;;;;;;1.07;100.00;95781.63;5063125;28;20249;-85
2021/12/01 04:22:24;;;;;;;5.03;3.13;;;;;;;1.08;100.00;95777.94;5060892;28;20203;-85
2021/12/01 04:24:51;;;;;;;3.40;2.47;;;;;;;1.03;100.00;95775.00;5051358;28;20209;-85
2021/12/01 04:27:18;;;;;;;5.17;2.93;;;;;;;1.02;100.00;95781.34;5053294;28;20202;-85
2021/12/01 04:29:45;;;;;;;2.50;1.90;;;;;;;1.02;100.00;95774.19;5076988;28;20274;-85
2021/12/01 04:32:13;;;;;;;2.53;2.20;;;;;;;0.94;100.00;95776.09;5069423;28;20209;-85
2021/12/01 04:34:40;;;;;;;4.70;3.20;;;;;;;0.90;100.00;95772.19;5064937;28;20219;-85
2021/12/01 04:37:09;;;;;;;3.57;3.00;;;;;;;0.83;100.00;95764.13;5065859;28;20215;-85
2021/12/01 04:39:36;;;;;;;3.30;3.00;;;;;;;0.83;100.00;95758.00;5059922;28;20202;-85
2021/12/01 04:42:05;;;;;;;3.30;2.93;;;;;;;0.79;100.00;95772.66;5059596;28;20212;-85
2021/12/01 04:44:35;;;;;;;4.30;3.10;;;;;;;0.77;100.00;95769.38;5063509;28;20225;-85
2021/12/01 04:47:03;;;;;;;3.17;2.60;;;;;;;0.72;100.00;95768.06;5062058;28;20250;-85
2021/12/01 04:49:34;;;;;;;6.23;3.50;;;;;;;0.69;100.00;95771.09;5055435;28;20293;-85
2021/12/01 04:52:02;;;;;;;6.23;3.40;;;;;;;0.67;100.00;95765.16;5049654;28;20221;-85
2021/12/01 04:54:30;;;;;;;5.97;4.30;;;;;;;0.64;100.00;95765.50;5054837;28;20219;-85
2021/12/01 04:56:59;;;;;;;5.73;3.27;;;;;;;0.63;100.00;95760.38;5061042;28;20206;-85
2021/12/01 04:59:26;;;;;;;6.03;4.50;;;;;;;0.59;100.00;95757.28;5064293;28;20213;-85
2021/12/01 05:01:56;;;;;;;6.53;3.80;;;;;;;0.58;100.00;95749.47;5060559;28;20320;-85
2021/12/01 05:04:23;;;;;;;12.37;6.73;;;;;;;0.58;100.00;95747.66;5066695;28;20204;-85
2021/12/01 05:06:51;;;;;;;6.87;4.90;;;;;;;0.56;100.00;95744.34;5059972;28;20210;-85
2021/12/01 05:09:18;;;;;;;3.40;2.30;;;;;;;0.59;100.00;95741.34;5060369;28;20202;-85
2021/12/01 05:11:46;;;;;;;3.07;2.33;;;;;;;0.53;100.00;95731.41;5065723;28;20205;-85
2021/12/01 05:14:14;;;;;;;4.60;3.50;;;;;;;0.49;100.00;95738.13;5074631;28;20331;-85
2021/12/01 05:16:43;;;;;;;7.50;5.20;;;;;;;0.51;100.00;95735.28;5061378;28;20204;-84
2021/12/01 05:19:11;;;;;;;7.40;5.10;;;;;;;0.56;100.00;95743.53;5063697;28;20199;-85
2021/12/01 05:21:39;;;;;;;5.67;3.70;;;;;;;0.52;100.00;95726.28;5066230;28;20204;-85
2021/12/01 05:24:07;;;;;;;8.80;4.27;;;;;;;0.64;100.00;95736.28;5072385;28;20255;-85
2021/12/01 05:26:35;;;;;;;69.17;8.90;;;;;;;0.48;100.00;95723.19;5051496;28;20266;-85
2021/12/01 05:29:03;;;;;;;25.53;6.13;;;;;;;0.49;100.00;95722.19;5075468;28;20244;-85
2021/12/01 05:31:31;;;;;;;10.07;4.63;;;;;;;0.51;100.00;95717.50;5071916;28;20210;-85
2021/12/01 05:33:58;;;;;;;8.63;4.83;;;;;;;0.48;100.00;95717.06;5055832;28;20281;-85
2021/12/01 05:36:26;;;;;;;5.93;4.03;;;;;;;0.42;100.00;95713.31;5058825;28;20301;-85
2021/12/01 05:38:53;;;;;;;12.27;4.90;;;;;;;0.41;100.00;95710.84;5051039;28;20213;-85
2021/12/01 05:41:20;;;;;;;17.60;6.03;;;;;;;0.39;100.00;95708.34;5065250;28;20197;-85
2021/12/01 05:43:47;;;;;;;16.10;7.73;;;;;;;0.35;100.00;95707.06;5059893;28;20280;-85
2021/12/01 05:46:16;;;;;;;18.60;7.70;;;;;;;0.33;100.00;95704.59;5059124;28;20335;-85
2021/12/01 05:48:43;;;;;;;18.90;8.20;;;;;;;0.31;100.00;95714.56;5065712;28;20205;-85
2021/12/01 05:51:10;;;;;;;17.23;7.73;;;;;;;0.28;100.00;95706.97;5061337;28;20201;-85
2021/12/01 05:53:38;;;;;;;23.40;8.27;;;;;;;0.31;100.00;95708.44;5067052;28;20224;-85
2021/12/01 05:56:06;;;;;;;15.30;6.03;;;;;;;0.28;100.00;95714.94;5060490;28;20206;-85
2021/12/01 05:58:33;;;;;;;35.43;6.23;;;;;;;0.30;100.00;95706.78;5075952;28;20217;-85
2021/12/01 06:01:00;;;;;;;30.27;7.60;;;;;;;0.21;100.00;95699.91;5058798;28;20316;-85
2021/12/01 06:03:28;;;;;;;14.00;7.07;;;;;;;0.16;100.00;95704.97;5058048;28;20230;-85
2021/12/01 06:05:56;;;;;;;13.77;6.50;;;;;;;0.24;100.00;95712.84;5064074;28;20205;-85
2021/12/01 06:08:23;;;;;;;10.27;5.63;;;;;;;0.22;100.00;95712.19;5074226;28;20287;-85
2021/12/01 06:10:50;;;;;;;10.03;5.23;;;;;;;0.29;100.00;95707.78;5063713;28;20198;-85
2021/12/01 06:13:19;;;;;;;9.07;5.40;;;;;;;0.36;100.00;95711.34;5056027;28;20224;-85
2021/12/01 06:15:50;;;;;;;9.87;6.00;;;;;;;0.41;100.00;95716.13;5076292;28;20250;-84
2021/12/01 06:18:18;;;;;;;9.47;5.77;;;;;;;0.38;100.00;95712.00;5072421;28;20247;-85
2021/12/01 06:20:47;;;;;;;16.33;8.17;;;;;;;0.42;100.00;95708.00;5069194;28;20208;-85
2021/12/01 06:23:14;;;;;;;21.30;9.23;;;;;;;0.28;100.00;95699.00;5068446;28;20334;-84
2021/12/01 06:25:42;;;;;;;20.47;9.47;;;;;;;0.26;100.00;95700.19;5068351;28;20232;-85
2021/12/01 06:28:09;;;;;;;47.73;10.73;;;;;;;0.24;100.00;95697.72;5064496;28;20259;-84
2021/12/01 06:30:38;;;;;;;29.90;9.83;;;;;;;0.15;100.00;95695.34;5065261;28;20198;-85
2021/12/01 06:33:05;;;;;;;43.70;9.97;;;;;;;0.11;100.00;95699.34;5064003;28;20205;-84
2021/12/01 06:35:33;;;;;;;22.93;11.07;;;;;;;0.08;100.00;95695.25;5062643;28;20201;-85
2021/12/01 06:38:02;;;;;;;31.17;17.10;;;;;;;0.05;100.00;95689.47;5064890;28;20213;-84
2021/12/01 06:40:29;;;;;;;25.33;12.57;;;;;;;0.09;100.00;95696.03;5067282;28;20520;-85
2021/12/01 06:42:57;;;;;;;26.23;12.60;;;;;;;0.06;100.00;95688.47;5059461;28;20219;-85
2021/12/01 06:45:24;;;;;;;27.93;12.67;;;;;;;0.02;100.00;95680.03;5058316;28;20226;-85
2021/12/01 06:47:51;;;;;;;24.00;12.27;;;;;;;0.05;100.00;95676.19;5065495;28;20194;-84
2021/12/01 06:50:18;;;;;;;24.63;13.00;;;;;;;0.03;100.00;95681.69;5064067;28;20204;-85
2021/12/01 06:52:46;;;;;;;19.80;12.10;;;;;;;0.06;100.00;95685.81;5059197;28;20206;-85
2021/12/01 06:55:14;;;;;;;24.40;12.63;;;;;;;0.03;100.00;95680.84;5069239;28;20228;-85
2021/12/01 06:57:42;;;;;;;25.73;11.93;;;;;;;0.02;100.00;95671.25;5081603;28;20194;-84
2021/12/01 07:00:13;;;;;;;19.73;11.80;;;;;;;0.04;100.00;95677.19;5061406;28;20273;-84
2021/12/01 07:02:41;;;;;;;20.83;11.47;;;;;;;0.07;100.00;95684.81;5070890;28;20233;-84
2021/12/01 07:05:09;;;;;;;22.43;12.57;;;;;;;0.10;100.00;95671.97;5065728;28;20194;-84
2021/12/01 07:07:38;;;;;;;29.97;14.63;;;;;;;0.12;100.00;95666.50;5068720;28;20241;-85
2021/12/01 07:10:06;;;;;;;28.87;16.57;;;;;;;0.12;100.00;95663.84;5061114;28;20195;-84
2021/12/01 07:12:36;;;;;;;27.33;14.00;;;;;;;0.12;100.00;95653.22;5062136;28;20198;-84
2021/12/01 07:15:03;;;;;;;24.53;14.43;;;;;;;0.12;100.00;95669.16;5066471;28;20214;-84
2021/12/01 07:17:30;;;;;;;27.10;15.73;;;;;;;0.09;100.00;95653.56;5062543;28;20202;-84
2021/12/01 07:19:57;;;;;;;29.20;15.90;;;;;;;0.06;100.00;95641.50;5061769;28;20343;-84
2021/12/01 07:22:24;;;;;;;21.53;12.07;;;;;;;0.03;100.00;95643.69;5061190;28;20205;-84
2021/12/01 07:24:52;;;;;;;43.87;13.27;;;;;;;0.02;100.00;95629.59;5061198;28;20209;-84
2021/12/01 07:27:19;;;;;;;9.13;5.03;;;;;;;0.11;100.00;95625.03;5055965;28;20255;-84
2021/12/01 07:29:47;;;;;;;8.27;4.20;;;;;;;0.24;100.00;95606.63;5066461;28;20289;-84
2021/12/01 07:32:14;;;;;;;2.10;1.30;;;;;;;0.55;100.00;95601.91;5067756;28;20271;-84
2021/12/01 07:34:42;;;;;;;2.70;1.97;;;;;;;0.81;100.00;95590.75;5078981;28;20222;-84
2021/12/01 07:37:09;;;;;;;11.10;7.00;;;;;;;0.65;100.00;95586.50;5071049;28;20201;-85
2021/12/01 07:39:36;;;;;;;13.80;7.23;;;;;;;0.39;100.00;95580.88;5062270;28;20205;-84
2021/12/01 07:42:04;;;;;;;10.17;6.23;;;;;;;0.33;100.00;95581.63;5069530;28;20224;-84
2021/12/01 07:44:32;;;;;;;9.03;4.77;;;;;;;0.31;100.00;95567.72;5061075;28;20205;-84
2021/12/01 07:47:00;;;;;;;7.53;5.20;;;;;;;0.38;100.00;95566.78;5057916;28;20351;-85
2021/12/01 07:49:27;;;;;;;8.50;4.73;;;;;;;0.43;100.00;95557.41;5063945;28;20221;-84
2021/12/01 07:51:54;;;;;;;6.20;4.20;;;;;;;0.53;100.00;95555.28;5062288;28;20232;-84
2021/12/01 07:54:22;;;;;;;4.50;3.60;;;;;;;0.56;100.00;95539.00;5059393;28;20222;-84
2021/12/01 07:56:49;;;;;;;4.77;3.53;;;;;;;0.70;100.00;95540.75;5053385;28;20209;-84
2021/12/01 07:59:16;;;;;;;8.53;3.87;;;;;;;0.66;100.00;95526.22;5062065;28;20213;-84
2021/12/01 08:01:43;;;;;;;5.63;3.37;;;;;;;0.76;100.00;95529.41;5059938;28;20300;-85
2021/12/01 08:04:13;;;;;;;3.43;2.73;;;;;;;0.86;100.00;95531.72;5062475;28;20210;-84
2021/12/01 08:06:43;;;;;;;6.00;3.27;;;;;;;0.90;100.00;95525.84;5067592;28;20217;-84
2021/12/01 08:09:11;;;;;;;7.13;3.33;;;;;;;0.95;100.00;95533.22;5057492;28;20251;-84
2021/12/01 08:11:39;;;;;;;6.60;3.40;;;;;;;0.92;100.00;95536.28;5066581;28;20263;-84
2021/12/01 08:14:07;;;;;;;8.33;4.80;;;;;;;0.79;100.00;95526.34;5061424;28;20225;-84
2021/12/01 08:16:34;;;;;;;7.63;5.47;;;;;;;0.72;100.00;95523.63;5052359;28;20236;-84
2021/12/01 08:19:01;;;;;;;10.43;5.90;;;;;;;0.71;100.00;95543.22;5062431;28;20218;-84
2021/12/01 08:21:30;;;;;;;14.17;6.40;;;;;;;0.64;100.00;95534.38;5061729;28;20206;-84
2021/12/01 08:23:57;;;;;;;10.87;5.60;;;;;;;0.59;100.00;95523.50;5065158;28;20231;-84
2021/12/01 08:26:24;;;;;;;12.27;5.10;;;;;;;0.68;100.00;95532.97;5065029;28;20195;-84
2021/12/01 08:28:52;;;;;;;10.30;5.77;;;;;;;0.68;100.00;95532.97;5069100;28;20212;-84
2021/12/01 08:31:20;;;;;;;12.00;5.73;;;;;;;0.65;100.00;95528.06;5068997;28;20212;-84
2021/12/01 08:33:48;;;;;;;12.00;6.43;;;;;;;0.64;100.00;95538.88;5061796;28;20270;-84
2021/12/01 08:36:16;;;;;;;14.60;6.73;;;;;;;0.59;100.00;95536.78;5063998;28;20219;-84
2021/12/01 08:38:45;;;;;;;16.33;7.33;;;;;;;0.61;100.00;95531.25;5058049;28;20197;-84
2021/12/01 08:41:13;;;;;;;11.07;7.23;;;;;;;0.62;100.00;95531.06;5061585;28;20215;-85
2021/12/01 08:43:40;;;;;;;16.43;7.50;;;;;;;0.63;100.00;95531.91;5063124;28;20194;-84
2021/12/01 08:46:08;;;;;;;16.83;7.93;;;;;;;0.62;100.00;95520.44;5059917;28;20248;-84
2021/12/01 08:48:36;;;;;;;14.30;8.43;;;;;;;0.60;100.00;95521.66;5061728;28;20207;-84
2021/12/01 08:51:05;;;;;;;17.07;9.07;;;;;;;0.65;100.00;95525.41;5078006;28;20201;-84
2021/12/01 08:53:34;;;;;;;17.90;9.43;;;;;;;0.66;100.00;95513.75;5054605;28;20262;-85
2021/12/01 08:56:04;;;;;;;14.27;7.83;;;;;;;0.70;100.00;95522.16;5058375;28;20336;-85
2021/12/01 08:58:31;;;;;;;14.13;8.50;;;;;;;0.77;100.00;95508.97;5061208;28;20207;-85
2021/12/01 09:00:58;;;;;;;16.27;7.73;;;;;;;0.86;100.00;95502.47;5062682;28;20208;-85
2021/12/01 09:03:27;;;;;;;15.93;6.93;;;;;;;0.85;100.00;95491.03;5064258;28;20280;-85
2021/12/01 09:05:55;;;;;;;10.97;6.40;;;;;;;0.96;100.00;95487.03;5065520;28;20228;-85
2021/12/01 09:08:24;;;;;;;9.53;5.20;;;;;;;1.07;100.00;95478.53;5051763;28;20213;-85
2021/12/01 09:10:53;;;;;;;11.00;7.73;;;;;;;1.31;100.00;95486.09;5077492;28;20291;-84
2021/12/01 09:13:23;;;;;;;18.30;8.63;;;;;;;1.38;100.00;95470.16;5068487;28;20231;-84
2021/12/01 09:15:52;;;;;;;17.30;9.73;;;;;;;1.40;100.00;95455.66;5062549;28;20229;-84
2021/12/01 09:18:19;;;;;;;18.03;8.77;;;;;;;1.36;100.00;95464.25;5061192;28;20260;-85
2021/12/01 09:20:47;;;;;;;12.90;8.73;;;;;;;1.38;100.00;95460.34;5057714;28;20536;-84
2021/12/01 09:23:14;;;;;;;14.57;7.93;;;;;;;1.59;100.00;95463.97;5051013;28;20256;-85
2021/12/01 09:25:41;;;;;;;11.20;7.37;;;;;;;1.70;100.00;95456.22;5063372;28;20208;-85
2021/12/01 09:28:08;;;;;;;11.50;6.60;;;;;;;1.73;100.00;95457.69;5070506;28;20217;-84
2021/12/01 09:30:37;;;;;;;8.43;6.33;;;;;;;1.75;100.00;95447.66;5064618;28;20202;-85
2021/12/01 09:33:04;;;;;;;10.60;6.57;;;;;;;1.82;100.00;95440.53;5063830;28;20210;-84
2021/12/01 09:35:31;;;;;;;13.00;6.97;;;;;;;1.82;100.00;95425.38;5054084;28;20297;-85
2021/12/01 09:37:58;;;;;;;7.77;6.50;;;;;;;1.91;100.00;95415.38;5057977;28;20337;-84
2021/12/01 09:40:25;;;;;;;15.60;7.27;;;;;;;2.02;100.00;95420.16;5065392;28;20190;-85
2021/12/01 09:42:54;;;;;;;9.63;6.60;;;;;;;2.07;100.00;95414.19;5063875;28;20205;-85
2021/12/01 09:45:24;;;;;;;8.50;6.00;;;;;;;2.15;100.00;95398.88;5058908;28;20236;-84
2021/12/01 09:47:53;;;;;;;9.23;6.07;;;;;;;2.16;100.00;95368.56;5063631;28;20339;-85
2021/12/01 09:50:20;;;;;;;8.13;6.33;;;;;;;2.32;100.00;95363.84;5059293;28;20298;-84
2021/12/01 09:52:47;;;;;;;10.20;6.13;;;;;;;2.43;100.00;95356.09;5066719;28;20215;-85
2021/12/01 09:55:16;;;;;;;10.87;5.93;;;;;;;2.54;100.00;95352.84;5057642;28;20214;-85
2021/12/01 09:57:55;;;;;;;10.33;5.93;;;;;;;2.77;100.00;95355.06;5067089;28;20295;-85
2021/12/01 10:00:22;;;;;;;8.13;5.07;;;;;;;2.92;100.00;95346.84;5063145;28;20215;-85
2021/12/01 10:02:50;;;;;;;7.90;5.33;;;;;;;3.04;100.00;95342.53;5061615;28;20233;-84
2021/12/01 10:05:48;;;;;;;6.90;5.30;;;;;;;3.32;100.00;95327.06;5063427;28;20197;-84
2021/12/01 10:08:19;;;;;;;6.97;5.17;;;;;;;3.57;100.00;95324.53;5055812;28;20278;-85
2021/12/01 10:10:46;;;;;;;8.63;5.07;;;;;;;3.78;100.00;95331.41;5061392;28;20202;-85
2021/12/01 10:13:13;;;;;;;5.80;4.60;;;;;;;3.90;100.00;95328.88;5068593;28;20225;-85
2021/12/01 10:15:40;;;;;;;9.90;5.07;;;;;;;3.94;100.00;95327.41;5062473;28;20221;-85
2021/12/01 10:18:12;;;;;;;5.47;4.23;;;;;;;3.94;100.00;95314.06;5077392;28;20202;-85
2021/12/01 10:20:43;;;;;;;5.73;4.23;;;;;;;3.95;100.00;95313.03;5069969;28;20291;-85
2021/12/01 10:23:13;;;;;;;7.20;4.20;;;;;;;4.08;100.00;95304.94;5077904;28;20212;-85
2021/12/01 10:25:41;;;;;;;5.53;3.80;;;;;;;4.24;100.00;95309.78;5066030;28;20201;-85
2021/12/01 10:28:13;;;;;;;8.67;4.43;;;;;;;4.36;100.00;95294.66;5075870;28;20201;-84
2021/12/01 10:30:44;;;;;;;6.03;4.37;;;;;;;4.25;100.00;95281.19;5066970;28;20194;-85
2021/12/01 10:33:13;;;;;;;9.17;4.10;;;;;;;4.14;100.00;95275.50;5064300;28;20206;-85
2021/12/01 10:35:42;;;;;;;11.23;5.10;;;;;;;3.99;100.00;95263.50;5059541;28;20218;-84
2021/12/01 10:38:13;;;;;;;6.50;4.30;;;;;;;3.97;100.00;95266.38;5065158;28;20205;-85
2021/12/01 10:40:41;;;;;;;6.17;4.57;;;;;;;4.05;100.00;95273.31;5063962;28;20216;-85
2021/12/01 10:43:11;;;;;;;11.70;4.63;;;;;;;4.15;100.00;95266.47;5064675;28;20209;-85
2021/12/01 10:45:41;;;;;;;8.27;4.93;;;;;;;4.10;100.00;95252.94;5064205;28;20231;-85
2021/12/01 10:48:10;;;;;;;8.03;5.77;;;;;;;3.94;100.00;95244.63;5063182;28;20205;-85
2021/12/01 10:50:43;;;;;;;7.47;5.00;;;;;;;4.13;100.00;95233.00;5066369;28;20200;-85
2021/12/01 10:53:12;;;;;;;9.00;5.23;;;;;;;4.48;100.00;95238.66;5053983;28;20193;-85
2021/12/01 10:55:43;;;;;;;8.03;4.63;;;;;;;5.11;100.00;95220.50;5066262;28;20239;-85
2021/12/01 10:58:10;;;;;;;7.83;4.60;;;;;;;5.27;100.00;95219.09;5052986;28;20304;-84
2021/12/01 11:00:42;;;;;;;6.47;4.00;;;;;;;5.43;100.00;95223.03;5064266;28;20201;-85
2021/12/01 11:03:12;;;;;;;7.90;3.90;;;;;;;5.53;100.00;95217.94;5056195;28;20257;-85
2021/12/01 11:05:41;;;;;;;5.60;4.17;;;;;;;5.54;100.00;95198.13;5069909;28;20193;-84
2021/12/01 11:08:17;;;;;;;7.27;4.67;;;;;;;6.27;100.00;95193.38;5067655;28;20225;-85
2021/12/01 11:10:46;;;;;;;8.13;4.40;;;;;;;6.65;100.00;95189.41;5065681;28;20300;-84
2021/12/01 11:13:14;;;;;;;8.53;4.37;;;;;;;6.95;100.00;95173.16;5067087;28;20214;-84
2021/12/01 11:15:43;;;;;;;4.93;3.63;;;;;;;7.09;100.00;95156.56;5052278;28;20230;-84
2021/12/01 11:18:19;;;;;;;5.37;3.30;;;;;;;7.03;100.00;95154.03;5052662;28;20209;-84
2021/12/01 11:20:48;;;;;;;6.63;3.60;;;;;;;7.09;100.00;95139.63;5060982;28;20239;-85
2021/12/01 11:23:19;;;;;;;3.23;2.80;;;;;;;7.25;100.00;95136.19;5068334;28;20204;-85
2021/12/01 11:25:48;;;;;;;4.03;3.23;;;;;;;7.31;100.00;95146.00;5059643;28;20213;-85
2021/12/01 11:28:17;;;;;;;11.37;4.13;;;;;;;7.45;100.00;95127.72;5062004;28;20206;-85
2021/12/01 11:30:48;;;;;;;6.53;2.93;;;;;;;7.73;100.00;95110.78;5059117;28;20297;-85
2021/12/01 11:33:17;;;;;;;3.50;2.53;;;;;;;7.42;100.00;95094.09;5066071;28;20288;-85
2021/12/01 11:35:48;;;;;;;4.43;2.10;;;;;;;7.27;100.00;95096.50;5061297;28;20220;-85
2021/12/01 11:38:18;;;;;;;2.30;1.90;;;;;;;7.42;100.00;95090.59;5078167;28;20233;-85
2021/12/01 11:40:46;;;;;;;3.73;1.90;;;;;;;7.34;100.00;95091.00;5073357;28;20220;-85